createdAt,value
2022-12-15T00:02:19.734Z,-1.30
2022-12-15T00:05:06.109Z,-1.20
2022-12-15T00:07:52.588Z,-0.90
2022-12-15T00:10:38.522Z,-1.10
2022-12-15T00:13:32.515Z,-1.20
2022-12-15T00:16:18.675Z,-1.10
2022-12-15T00:19:05.435Z,-1.10
2022-12-15T00:21:51.076Z,-0.80
2022-12-15T00:24:37.146Z,-1.30
2022-12-15T00:27:23.166Z,-1.10
2022-12-15T00:30:08.887Z,-1.10
2022-12-15T00:32:54.352Z,-1.10
2022-12-15T00:35:40.244Z,-1.10
2022-12-15T00:38:32.831Z,-1.10
2022-12-15T00:41:01.949Z,-1.30
2022-12-15T00:43:34.561Z,-1.10
2022-12-15T00:46:21.874Z,-0.80
2022-12-15T00:48:49.502Z,-1.00
2022-12-15T00:51:17.622Z,-1.10
2022-12-15T00:54:04.927Z,-0.90
2022-12-15T00:56:51.018Z,-1.10
2022-12-15T00:59:36.550Z,-1.00
2022-12-15T01:02:22.586Z,-1.00
2022-12-15T01:05:08.136Z,-0.70
2022-12-15T01:07:53.365Z,-1.20
2022-12-15T01:10:38.813Z,-0.80
2022-12-15T01:13:25.074Z,-0.70
2022-12-15T01:16:10.494Z,-0.80
2022-12-15T01:18:55.938Z,-0.70
2022-12-15T01:21:24.947Z,-0.90
2022-12-15T01:23:53.319Z,-1.20
2022-12-15T01:26:20.562Z,-1.10
2022-12-15T01:28:47.784Z,-1.20
2022-12-15T01:31:15.125Z,-0.90
2022-12-15T01:33:44.760Z,-0.90
2022-12-15T01:36:12.411Z,-0.80
2022-12-15T01:38:39.410Z,-1.20
2022-12-15T01:41:12.479Z,-0.70
2022-12-15T01:43:41.316Z,-0.90
2022-12-15T01:46:19.209Z,-1.10
2022-12-15T01:48:56.810Z,-0.70
2022-12-15T01:51:40.156Z,-1.00
2022-12-15T01:54:21.024Z,-0.80
2022-12-15T01:56:57.137Z,-1.00
2022-12-15T01:59:38.338Z,-1.00
2022-12-15T02:02:05.935Z,-1.00
2022-12-15T02:04:33.938Z,-0.80
2022-12-15T02:07:01.051Z,-0.80
2022-12-15T02:09:28.992Z,-1.00
2022-12-15T02:12:07.939Z,-1.00
2022-12-15T02:15:02.163Z,-0.80
2022-12-15T02:17:50.282Z,-1.00
2022-12-15T02:20:46.170Z,-0.90
2022-12-15T02:23:57.865Z,-1.00
2022-12-15T02:26:49.091Z,-1.00
2022-12-15T02:30:16.836Z,-0.70
2022-12-15T02:33:03.881Z,-1.00
2022-12-15T02:36:12.398Z,-0.80
2022-12-15T02:38:43.644Z,-1.20
2022-12-15T02:41:38.879Z,-0.80
2022-12-15T02:44:40.164Z,-0.70
2022-12-15T02:47:38.963Z,-0.80
2022-12-15T02:50:25.319Z,-1.20
2022-12-15T02:53:20.273Z,-0.80
2022-12-15T02:56:17.997Z,-0.80
2022-12-15T02:59:22.457Z,-1.10
2022-12-15T03:02:05.938Z,-0.70
2022-12-15T03:04:34.087Z,-0.70
2022-12-15T03:07:08.053Z,-0.90
2022-12-15T03:09:35.130Z,-0.60
2022-12-15T03:12:02.230Z,-0.90
2022-12-15T03:14:29.358Z,-0.60
2022-12-15T03:16:56.580Z,-0.90
2022-12-15T03:19:24.472Z,-0.90
2022-12-15T03:21:52.583Z,-0.80
2022-12-15T03:24:19.956Z,-0.60
2022-12-15T03:26:50.175Z,-0.90
2022-12-15T03:29:18.511Z,-0.90
2022-12-15T03:31:45.657Z,-0.80
2022-12-15T03:34:17.135Z,-0.80
2022-12-15T03:36:44.353Z,-0.60
2022-12-15T03:39:11.473Z,-0.80
2022-12-15T03:41:38.583Z,-0.80
2022-12-15T03:44:05.802Z,-0.60
2022-12-15T03:46:33.022Z,-0.80
2022-12-15T03:49:00.128Z,-0.80
2022-12-15T03:51:27.284Z,-0.70
2022-12-15T03:53:54.535Z,-0.80
2022-12-15T03:56:22.193Z,-0.80
2022-12-15T03:58:49.345Z,-0.60
2022-12-15T04:01:29.950Z,-0.80
2022-12-15T04:04:00.782Z,-0.70
2022-12-15T04:06:30.345Z,-0.80
2022-12-15T04:08:57.501Z,-0.70
2022-12-15T04:11:24.592Z,-0.70
2022-12-15T04:13:51.715Z,-1.00
2022-12-15T04:16:20.416Z,-0.70
2022-12-15T04:19:08.481Z,-1.00
2022-12-15T04:21:35.669Z,-0.70
2022-12-15T04:24:21.192Z,-1.10
2022-12-15T04:27:06.574Z,-1.00
2022-12-15T04:29:52.191Z,-0.50
2022-12-15T04:32:37.427Z,-0.60
2022-12-15T04:35:23.800Z,-1.00
2022-12-15T04:38:09.743Z,-0.80
2022-12-15T04:40:55.598Z,-0.80
2022-12-15T04:43:41.530Z,-0.90
2022-12-15T04:46:26.829Z,-0.80
2022-12-15T04:49:12.212Z,-1.00
2022-12-15T04:51:59.225Z,-0.50
2022-12-15T04:54:44.599Z,-0.90
2022-12-15T04:57:30.106Z,-0.60
2022-12-15T05:00:18.816Z,-0.70
2022-12-15T05:03:04.289Z,-0.80
2022-12-15T05:05:49.787Z,-0.50
2022-12-15T05:08:35.770Z,-0.80
2022-12-15T05:11:21.954Z,-1.00
2022-12-15T05:14:07.418Z,-0.60
2022-12-15T05:16:52.870Z,-1.00
2022-12-15T05:19:38.356Z,-0.80
2022-12-15T05:22:23.679Z,-0.80
2022-12-15T05:25:09.048Z,-0.80
2022-12-15T05:27:54.624Z,-0.80
2022-12-15T05:30:40.098Z,-0.80
2022-12-15T05:33:07.261Z,-0.80
2022-12-15T05:35:34.317Z,-0.70
2022-12-15T05:38:01.375Z,-0.50
2022-12-15T05:40:28.325Z,-0.80
2022-12-15T05:42:59.427Z,-0.70
2022-12-15T05:45:27.914Z,-0.40
2022-12-15T05:47:56.662Z,-0.90
2022-12-15T05:50:24.180Z,-0.70
2022-12-15T05:52:51.552Z,-0.90
2022-12-15T05:55:19.945Z,-0.40
2022-12-15T05:57:54.396Z,-0.70
2022-12-15T06:00:22.500Z,-0.60
2022-12-15T06:02:50.630Z,-0.50
2022-12-15T06:05:18.435Z,-0.70
2022-12-15T06:07:45.769Z,-0.60
2022-12-15T06:10:12.973Z,-0.60
2022-12-15T06:12:40.054Z,-0.70
2022-12-15T06:15:07.773Z,-0.50
2022-12-15T06:17:37.748Z,-0.60
2022-12-15T06:20:05.337Z,-0.40
2022-12-15T06:22:32.390Z,-0.80
2022-12-15T06:24:59.432Z,-0.80
2022-12-15T06:27:26.519Z,-0.70
2022-12-15T06:29:53.532Z,-0.70
2022-12-15T06:32:21.423Z,-0.50
2022-12-15T06:34:49.417Z,-0.60
2022-12-15T06:37:16.565Z,-0.60
2022-12-15T06:39:43.666Z,-0.70
2022-12-15T06:42:10.804Z,-0.80
2022-12-15T06:44:37.779Z,-0.70
2022-12-15T06:47:05.016Z,-0.40
2022-12-15T06:49:32.272Z,-0.30
2022-12-15T06:51:59.509Z,-0.50
2022-12-15T06:54:26.696Z,-0.30
2022-12-15T06:56:53.853Z,-0.50
2022-12-15T06:59:20.853Z,-0.50
2022-12-15T07:01:50.447Z,-0.60
2022-12-15T07:04:18.402Z,-0.60
2022-12-15T07:06:45.548Z,-0.20
2022-12-15T07:09:18.290Z,-0.50
2022-12-15T07:11:46.653Z,-0.50
2022-12-15T07:14:13.721Z,-0.30
2022-12-15T07:16:41.379Z,-0.40
2022-12-15T07:19:14.668Z,-0.60
2022-12-15T07:21:41.863Z,-0.20
2022-12-15T07:24:14.002Z,-0.60
2022-12-15T07:26:41.816Z,-0.10
2022-12-15T07:29:10.511Z,-0.30
2022-12-15T07:31:37.545Z,-0.30
2022-12-15T07:34:04.720Z,-0.20
2022-12-15T07:36:32.041Z,-0.30
2022-12-15T07:39:03.761Z,-0.60
2022-12-15T07:41:31.406Z,-0.50
2022-12-15T07:43:59.025Z,-0.20
2022-12-15T07:46:26.723Z,-0.10
2022-12-15T07:48:53.738Z,0.00
2022-12-15T07:51:22.821Z,-0.60
2022-12-15T07:53:51.274Z,-0.10
2022-12-15T07:56:20.036Z,-0.10
2022-12-15T07:58:47.363Z,-0.30
2022-12-15T08:01:15.704Z,-0.20
2022-12-15T08:03:45.238Z,-0.10
2022-12-15T08:06:15.272Z,-0.10
2022-12-15T08:08:44.320Z,0.20
2022-12-15T08:11:14.863Z,0.00
2022-12-15T08:16:34.748Z,-0.30
2022-12-15T08:19:03.802Z,0.20
2022-12-15T08:21:31.860Z,0.30
2022-12-15T08:24:00.945Z,0.30
2022-12-15T08:26:30.732Z,0.50
2022-12-15T08:29:31.950Z,0.40
2022-12-15T08:31:51.487Z,0.40
2022-12-15T08:34:18.748Z,0.50
2022-12-15T08:36:45.725Z,0.40
2022-12-15T08:39:12.832Z,0.50
2022-12-15T08:41:43.131Z,0.80
2022-12-15T08:44:13.588Z,0.40
2022-12-15T08:46:42.924Z,0.30
2022-12-15T08:49:10.785Z,0.60
2022-12-15T08:51:38.040Z,0.40
2022-12-15T08:54:07.718Z,0.30
2022-12-15T08:56:36.448Z,0.30
2022-12-15T08:59:03.631Z,0.50
2022-12-15T09:01:33.067Z,0.50
2022-12-15T09:04:01.675Z,0.60
2022-12-15T09:06:36.866Z,0.50
2022-12-15T09:09:11.918Z,0.70
2022-12-15T09:11:39.116Z,0.60
2022-12-15T09:14:07.973Z,0.80
2022-12-15T09:16:35.294Z,1.00
2022-12-15T09:19:02.505Z,0.70
2022-12-15T09:21:32.185Z,0.90
2022-12-15T09:24:02.203Z,0.90
2022-12-15T09:26:33.534Z,0.70
2022-12-15T09:29:02.255Z,0.70
2022-12-15T09:31:37.644Z,0.80
2022-12-15T09:34:04.745Z,1.00
2022-12-15T09:36:33.067Z,1.00
2022-12-15T09:39:02.095Z,1.30
2022-12-15T09:41:33.883Z,1.40
2022-12-15T09:44:20.016Z,1.20
2022-12-15T09:47:21.081Z,1.40
2022-12-15T09:50:01.638Z,1.00
2022-12-15T09:52:56.782Z,1.20
2022-12-15T09:55:30.503Z,1.00
2022-12-15T09:58:28.177Z,1.40
2022-12-15T10:01:30.278Z,1.40
2022-12-15T10:04:39.217Z,1.40
2022-12-15T10:07:27.822Z,1.40
2022-12-15T10:09:54.871Z,1.60
2022-12-15T10:12:30.654Z,1.40
2022-12-15T10:15:19.313Z,1.40
2022-12-15T10:18:21.013Z,1.60
2022-12-15T10:20:49.149Z,1.20
2022-12-15T10:23:18.580Z,1.20
2022-12-15T10:25:59.029Z,1.40
2022-12-15T10:29:15.236Z,1.60
2022-12-15T10:32:27.782Z,1.60
2022-12-15T10:34:54.865Z,1.70
2022-12-15T10:37:24.423Z,1.90
2022-12-15T10:39:51.698Z,1.90
2022-12-15T10:42:26.837Z,2.10
2022-12-15T10:44:59.234Z,1.90
2022-12-15T10:47:31.960Z,2.30
2022-12-15T10:50:24.953Z,2.20
2022-12-15T10:52:52.821Z,2.00
2022-12-15T10:55:39.853Z,2.10
2022-12-15T10:58:25.259Z,2.30
2022-12-15T11:01:17.039Z,1.90
2022-12-15T11:03:46.121Z,1.90
2022-12-15T11:06:30.536Z,1.90
2022-12-15T11:09:09.773Z,1.70
2022-12-15T11:12:06.354Z,2.00
2022-12-15T11:14:51.384Z,1.90
2022-12-15T11:17:23.440Z,1.70
2022-12-15T11:20:04.678Z,1.80
2022-12-15T11:22:50.907Z,2.20
2022-12-15T11:25:38.883Z,1.90
2022-12-15T11:28:17.027Z,2.00
2022-12-15T11:31:02.901Z,1.90
2022-12-15T11:33:30.373Z,1.90
2022-12-15T11:36:09.860Z,2.00
2022-12-15T11:38:52.959Z,2.30
2022-12-15T11:41:51.310Z,2.10
2022-12-15T11:44:46.949Z,2.20
2022-12-15T11:47:45.045Z,3.60
2022-12-15T11:50:43.532Z,1.90
2022-12-15T11:53:36.148Z,1.90
2022-12-15T11:56:09.381Z,2.10
2022-12-15T11:59:32.462Z,2.40
2022-12-15T12:02:30.929Z,2.20
2022-12-15T12:05:22.589Z,2.30
2022-12-15T12:08:46.543Z,2.00
2022-12-15T12:12:01.984Z,2.20
2022-12-15T12:14:57.678Z,2.10
2022-12-15T12:17:36.626Z,2.50
2022-12-15T12:20:25.486Z,2.40
2022-12-15T12:23:42.794Z,2.30
2022-12-15T12:26:34.622Z,2.30
2022-12-15T12:29:17.283Z,2.40
2022-12-15T12:32:04.950Z,2.50
2022-12-15T12:38:10.351Z,2.70
2022-12-15T12:41:21.810Z,2.40
2022-12-15T12:44:01.528Z,2.40
2022-12-15T12:46:44.037Z,2.30
2022-12-15T12:49:39.079Z,2.40
2022-12-15T12:52:49.691Z,2.30
2022-12-15T12:55:58.270Z,2.50
2022-12-15T12:58:45.509Z,2.40
2022-12-15T13:04:39.910Z,2.60
2022-12-15T13:07:41.001Z,2.30
2022-12-15T13:10:33.682Z,2.40
2022-12-15T13:13:32.396Z,2.30
2022-12-15T13:16:06.560Z,2.20
2022-12-15T13:19:11.631Z,2.40
2022-12-15T13:21:41.792Z,2.20
2022-12-15T13:24:46.250Z,2.20
2022-12-15T13:27:18.497Z,2.10
2022-12-15T13:30:15.993Z,2.10
2022-12-15T13:32:55.641Z,1.90
2022-12-15T13:35:45.037Z,1.80
2022-12-15T13:38:59.340Z,2.10
2022-12-15T13:41:26.903Z,2.20
2022-12-15T13:44:35.133Z,1.70
2022-12-15T13:47:28.210Z,1.90
2022-12-15T13:50:17.388Z,1.80
2022-12-15T13:53:18.467Z,1.60
2022-12-15T13:56:21.520Z,1.50
2022-12-15T13:59:06.836Z,1.50
2022-12-15T14:01:34.143Z,1.70
2022-12-15T14:04:15.568Z,1.50
2022-12-15T14:07:02.859Z,1.60
2022-12-15T14:09:41.966Z,1.70
2022-12-15T14:12:13.959Z,1.80
2022-12-15T14:14:49.166Z,1.40
2022-12-15T14:17:19.801Z,1.70
2022-12-15T14:19:51.062Z,1.70
2022-12-15T14:22:29.394Z,1.20
2022-12-15T14:25:29.382Z,1.50
2022-12-15T14:27:57.565Z,1.50
2022-12-15T14:30:33.512Z,1.20
2022-12-15T14:33:17.785Z,1.70
2022-12-15T14:35:51.832Z,1.50
2022-12-15T14:38:24.253Z,1.40
2022-12-15T14:40:56.659Z,1.70
2022-12-15T14:43:30.275Z,1.70
2022-12-15T14:46:27.134Z,1.50
2022-12-15T14:48:58.675Z,1.70
2022-12-15T14:51:29.968Z,1.10
2022-12-15T14:53:57.338Z,1.30
2022-12-15T14:56:31.284Z,1.40
2022-12-15T14:59:04.625Z,1.50
2022-12-15T15:01:59.469Z,1.40
2022-12-15T15:03:12.134Z,2.70
2022-12-15T15:04:32.626Z,1.60
2022-12-15T15:07:07.223Z,1.30
2022-12-15T15:09:41.483Z,1.30
2022-12-15T15:12:19.827Z,1.30
2022-12-15T15:14:52.994Z,1.40
2022-12-15T15:17:35.100Z,1.50
2022-12-15T15:20:18.450Z,0.40
2022-12-15T15:22:48.103Z,1.60
2022-12-15T15:25:54.709Z,1.30
2022-12-15T15:28:28.463Z,1.20
2022-12-15T15:31:07.003Z,1.40
2022-12-15T15:33:34.201Z,1.60
2022-12-15T15:36:04.346Z,1.40
2022-12-15T15:38:34.805Z,1.30
2022-12-15T15:41:22.886Z,1.60
2022-12-15T15:43:50.037Z,1.40
2022-12-15T15:46:31.057Z,1.30
2022-12-15T15:49:03.253Z,1.40
2022-12-15T15:51:32.560Z,1.30
2022-12-15T15:54:13.836Z,1.30
2022-12-15T15:56:41.616Z,1.30
2022-12-15T15:59:16.495Z,1.30
2022-12-15T16:01:46.946Z,1.30
2022-12-15T16:04:14.917Z,1.60
2022-12-15T16:06:46.924Z,1.30
2022-12-15T16:09:16.871Z,1.10
2022-12-15T16:11:47.192Z,1.20
2022-12-15T16:14:16.987Z,1.50
2022-12-15T16:16:45.051Z,1.30
2022-12-15T16:19:12.440Z,1.20
2022-12-15T16:21:41.554Z,1.50
2022-12-15T16:24:19.174Z,1.20
2022-12-15T16:26:50.675Z,1.20
2022-12-15T16:29:21.902Z,1.20
2022-12-15T16:31:49.571Z,1.20
2022-12-15T16:34:17.513Z,1.30
2022-12-15T16:36:45.175Z,1.10
2022-12-15T16:39:39.789Z,1.20
2022-12-15T16:42:12.516Z,1.40
2022-12-15T16:44:39.763Z,1.40
2022-12-15T16:47:06.873Z,1.10
2022-12-15T16:49:40.012Z,1.20
2022-12-15T16:52:28.119Z,1.20
2022-12-15T16:54:56.084Z,1.40
2022-12-15T16:57:23.124Z,1.30
2022-12-15T16:59:50.320Z,1.20
2022-12-15T17:02:27.231Z,1.20
2022-12-15T17:04:55.508Z,1.40
2022-12-15T17:07:25.292Z,1.20
2022-12-15T17:10:00.385Z,1.40
2022-12-15T17:12:27.538Z,1.10
2022-12-15T17:14:54.778Z,1.30
2022-12-15T17:17:21.941Z,1.30
2022-12-15T17:20:31.183Z,1.40
2022-12-15T17:22:37.949Z,1.30
2022-12-15T17:25:05.938Z,1.30
2022-12-15T17:27:33.172Z,1.50
2022-12-15T17:30:01.798Z,1.30
2022-12-15T17:32:29.090Z,1.30
2022-12-15T17:34:56.408Z,1.50
2022-12-15T17:37:26.165Z,1.40
2022-12-15T17:39:56.385Z,1.50
2022-12-15T17:42:23.490Z,1.30
2022-12-15T17:44:51.875Z,1.30
2022-12-15T17:47:19.295Z,1.30
2022-12-15T17:49:47.343Z,1.60
2022-12-15T17:52:28.523Z,1.30
2022-12-15T17:54:56.494Z,1.30
2022-12-15T17:57:23.671Z,1.30
2022-12-15T17:59:50.885Z,1.50
2022-12-15T18:02:18.139Z,1.30
2022-12-15T18:04:45.425Z,1.20
2022-12-15T18:07:23.753Z,1.20
2022-12-15T18:09:52.615Z,1.20
2022-12-15T18:12:26.946Z,1.20
2022-12-15T18:14:56.896Z,1.10
2022-12-15T18:17:24.534Z,1.20
2022-12-15T18:19:51.729Z,1.30
2022-12-15T18:22:24.429Z,1.30
2022-12-15T18:24:54.197Z,1.30
2022-12-15T18:27:26.316Z,1.40
2022-12-15T18:29:54.291Z,1.30
2022-12-15T18:32:27.167Z,1.30
2022-12-15T18:34:55.391Z,1.40
2022-12-15T18:37:25.087Z,1.30
2022-12-15T18:39:52.610Z,1.10
2022-12-15T18:42:21.584Z,1.40
2022-12-15T18:44:52.553Z,1.50
2022-12-15T18:47:23.662Z,1.50
2022-12-15T18:49:50.808Z,1.70
2022-12-15T18:52:24.151Z,1.70
2022-12-15T18:54:54.228Z,1.80
2022-12-15T18:57:36.314Z,1.80
2022-12-15T19:00:27.711Z,1.60
2022-12-15T19:03:00.187Z,1.50
2022-12-15T19:05:29.136Z,1.80
2022-12-15T19:08:26.035Z,1.70
2022-12-15T19:11:00.624Z,1.70
2022-12-15T19:13:35.317Z,1.80
2022-12-15T19:16:06.603Z,1.30
2022-12-15T19:18:52.321Z,1.60
2022-12-15T19:21:43.327Z,1.50
2022-12-15T19:24:15.937Z,1.50
2022-12-15T19:26:43.475Z,1.40
2022-12-15T19:29:20.126Z,1.50
2022-12-15T19:31:47.841Z,1.10
2022-12-15T19:34:15.488Z,1.70
2022-12-15T19:36:42.945Z,1.40
2022-12-15T19:39:23.252Z,1.70
2022-12-15T19:41:51.542Z,1.60
2022-12-15T19:44:18.762Z,1.60
2022-12-15T19:46:46.285Z,1.60
2022-12-15T19:49:14.424Z,1.10
2022-12-15T19:51:41.986Z,1.40
2022-12-15T19:54:17.956Z,1.20
2022-12-15T19:56:45.078Z,1.40
2022-12-15T19:59:25.902Z,1.30
2022-12-15T20:01:53.561Z,1.30
2022-12-15T20:04:24.082Z,1.30
2022-12-15T20:06:51.950Z,1.30
2022-12-15T20:09:19.475Z,1.60
2022-12-15T20:11:46.859Z,1.40
2022-12-15T20:14:17.614Z,1.30
2022-12-15T20:16:46.072Z,1.30
2022-12-15T20:19:13.746Z,1.30
2022-12-15T20:21:42.000Z,1.30
2022-12-15T20:24:18.845Z,1.30
2022-12-15T20:26:47.010Z,1.40
2022-12-15T20:29:29.391Z,1.30
2022-12-15T20:31:59.385Z,1.50
2022-12-15T20:34:30.580Z,1.50
2022-12-15T20:36:59.089Z,1.40
2022-12-15T20:39:30.717Z,1.30
2022-12-15T20:41:58.207Z,1.30
2022-12-15T20:44:25.384Z,1.50
2022-12-15T20:46:52.947Z,1.30
2022-12-15T20:49:22.964Z,1.40
2022-12-15T20:51:50.757Z,1.50
2022-12-15T20:54:21.980Z,1.50
2022-12-15T20:56:50.249Z,1.60
2022-12-15T20:59:18.089Z,1.30
2022-12-15T21:01:46.521Z,1.20
2022-12-15T21:04:29.900Z,1.10
2022-12-15T21:06:57.298Z,1.30
2022-12-15T21:09:25.192Z,1.50
2022-12-15T21:11:54.635Z,1.40
2022-12-15T21:14:24.092Z,1.50
2022-12-15T21:16:52.009Z,1.40
2022-12-15T21:19:20.826Z,1.40
2022-12-15T21:21:55.122Z,1.60
2022-12-15T21:24:28.245Z,1.10
2022-12-15T21:26:56.175Z,1.30
2022-12-15T21:29:28.177Z,1.60
2022-12-15T21:31:55.269Z,1.50
2022-12-15T21:34:22.710Z,1.50
2022-12-15T21:36:55.186Z,1.40
2022-12-15T21:39:33.577Z,1.70
2022-12-15T21:42:13.185Z,1.40
2022-12-15T21:44:41.588Z,1.70
2022-12-15T21:47:50.028Z,1.70
2022-12-15T21:50:19.881Z,1.50
2022-12-15T21:52:47.862Z,1.80
2022-12-15T21:55:19.007Z,1.70
2022-12-15T21:57:46.148Z,1.60
2022-12-15T22:00:17.447Z,1.50
2022-12-15T22:02:46.911Z,1.60
2022-12-15T22:05:22.935Z,1.50
2022-12-15T22:07:51.104Z,1.50
2022-12-15T22:10:19.833Z,1.60
2022-12-15T22:12:59.105Z,1.70
2022-12-15T22:15:28.878Z,1.60
2022-12-15T22:17:56.210Z,1.70
2022-12-15T22:20:25.159Z,1.60
2022-12-15T22:22:52.353Z,1.60
2022-12-15T22:25:23.798Z,1.70
2022-12-15T22:27:51.841Z,1.60
2022-12-15T22:30:24.013Z,1.60
2022-12-15T22:32:52.504Z,1.80
2022-12-15T22:35:25.139Z,1.60
2022-12-15T22:37:56.544Z,1.60
2022-12-15T22:40:25.002Z,1.60
2022-12-15T22:42:57.573Z,1.60
2022-12-15T22:45:25.197Z,1.70
2022-12-15T22:47:55.048Z,1.70
2022-12-15T22:50:26.907Z,1.90
2022-12-15T22:52:55.069Z,1.60
2022-12-15T22:55:24.753Z,1.70
2022-12-15T22:58:10.322Z,1.60
2022-12-15T23:00:37.863Z,1.70
2022-12-15T23:03:10.295Z,1.60
2022-12-15T23:05:41.178Z,1.60
2022-12-15T23:08:08.691Z,1.90
2022-12-15T23:10:54.126Z,1.70
2022-12-15T23:13:21.955Z,1.70
2022-12-15T23:16:09.911Z,1.70
2022-12-15T23:18:37.154Z,1.80
2022-12-15T23:21:04.676Z,1.60
2022-12-15T23:23:32.933Z,1.70
2022-12-15T23:26:00.265Z,1.80
2022-12-15T23:28:27.581Z,1.70
2022-12-15T23:30:55.927Z,1.80
2022-12-15T23:33:25.076Z,1.70
2022-12-15T23:36:01.019Z,1.70
2022-12-15T23:38:29.003Z,1.80
2022-12-15T23:40:57.477Z,1.90
2022-12-15T23:43:28.807Z,1.80
2022-12-15T23:46:07.233Z,1.80
2022-12-15T23:48:39.062Z,1.80
2022-12-15T23:51:10.204Z,1.90
2022-12-15T23:53:40.671Z,1.90
2022-12-15T23:56:27.724Z,1.90
2022-12-15T23:58:58.280Z,1.90
